Time;durP1;ratioP1;P1;durP2;ratioP2;P2;SDS_P1;SDS_P2;PMS_P1;PMS_P2;Temp;Humidity;BMP_temperature;BMP_pressure;BME280_temperature;BME280_humidity;BME280_pressure;Samples;Min_cycle;Max_cycle;Signal;HPM_P1;HPM_P2
2023/10/10 00:18:02;;;;;;;7.25;3.47;;;;;;;21.89;51.39;100645.91;41672815;28;20065;-69
2023/10/10 00:38:19;;;;;;;7.95;3.50;;;;;;;21.83;51.57;100664.81;41707600;28;20050;-69
2023/10/10 00:58:24;;;;;;;4.65;3.35;;;;;;;21.80;51.31;100674.75;41707684;28;20144;-68
2023/10/10 01:18:25;;;;;;;4.68;3.10;;;;;;;21.59;51.58;100670.16;41689501;28;21058;-68
2023/10/10 01:38:27;;;;;;;4.28;3.08;;;;;;;21.76;51.37;100700.50;41684876;28;20049;-67
2023/10/10 01:58:27;;;;;;;6.05;2.90;;;;;;;21.72;51.30;100641.09;41694781;28;20068;-69
2023/10/10 02:18:39;;;;;;;3.97;2.72;;;;;;;21.69;51.70;100686.13;41688633;28;20048;-67
2023/10/10 02:38:40;;;;;;;4.05;2.70;;;;;;;21.68;51.35;100687.91;41680157;28;20033;-67
2023/10/10 02:58:43;;;;;;;5.22;2.50;;;;;;;21.58;51.52;100697.44;41678190;28;20053;-68
2023/10/10 05:41:14;;;;;;;17.05;4.93;;;;;;;21.57;48.40;100788.03;41686258;28;20056;-68
2023/10/10 06:01:15;;;;;;;19.25;5.57;;;;;;;21.48;48.81;100815.81;41743657;28;20064;-74
2023/10/10 06:21:18;;;;;;;16.45;4.93;;;;;;;21.66;48.96;100837.41;41753953;28;20048;-75
2023/10/10 06:41:22;;;;;;;9.75;4.72;;;;;;;21.43;49.77;100879.41;41754584;28;20041;-74
2023/10/10 07:01:24;;;;;;;19.48;5.57;;;;;;;21.44;48.93;100874.97;41696667;28;20064;-71
2023/10/10 07:21:36;;;;;;;43.25;6.25;;;;;;;21.36;48.96;100893.09;41723455;28;20082;-72
2023/10/10 07:41:36;;;;;;;26.70;7.43;;;;;;;21.74;48.68;100906.22;41734002;28;20036;-69
2023/10/10 08:01:38;;;;;;;45.83;11.40;;;;;;;21.46;49.52;100878.34;41698285;28;20045;-73
2023/10/10 08:21:44;;;;;;;36.72;10.60;;;;;;;21.65;49.47;100901.59;41685382;28;20041;-69
2023/10/10 08:41:52;;;;;;;36.67;11.15;;;;;;;21.57;49.78;100917.97;41651122;28;20452;-70
2023/10/10 09:01:55;;;;;;;27.30;10.07;;;;;;;21.60;50.00;100919.53;41745965;28;20038;-70
2023/10/10 09:21:56;;;;;;;26.40;9.05;;;;;;;21.60;49.66;100956.44;41752626;28;20041;-70
2023/10/10 10:02:04;;;;;;;25.25;8.65;;;;;;;21.50;51.04;100940.41;41764012;28;20107;-70
2023/10/10 10:22:08;;;;;;;19.25;7.32;;;;;;;21.71;50.08;100938.06;41779580;28;20121;-69
2023/10/10 10:42:15;;;;;;;17.25;7.45;;;;;;;21.71;49.84;100948.59;41776493;28;20053;-69
2023/10/10 11:02:28;;;;;;;12.63;6.82;;;;;;;21.64;49.84;100928.94;41747981;28;20071;-71
2023/10/10 11:22:38;;;;;;;17.67;8.40;;;;;;;22.11;51.74;100929.09;41729593;28;20537;-68
2023/10/10 11:42:38;;;;;;;17.33;9.63;;;;;;;21.99;53.92;100912.34;41727935;28;20053;-69
2023/10/10 12:02:41;;;;;;;16.88;9.82;;;;;;;21.99;52.82;100898.34;41717555;28;20046;-68
2023/10/10 12:22:45;;;;;;;14.50;9.05;;;;;;;22.12;52.30;100883.31;41730617;28;20049;-69
2023/10/10 12:42:45;;;;;;;19.90;9.15;;;;;;;21.96;49.12;100882.72;41710920;28;20060;-68
2023/10/10 13:02:46;;;;;;;19.70;9.35;;;;;;;21.87;48.38;100879.84;41732938;28;20049;-68
2023/10/10 13:22:50;;;;;;;19.05;10.35;;;;;;;21.92;46.68;100871.56;41739009;28;20076;-71
2023/10/10 13:42:50;;;;;;;22.42;12.55;;;;;;;22.42;51.86;100837.16;41758290;28;20056;-74
2023/10/10 14:02:51;;;;;;;22.38;11.23;;;;;;;22.36;50.64;100843.72;41766296;28;20414;-73
2023/10/10 14:22:51;;;;;;;20.88;11.68;;;;;;;22.31;48.49;100852.91;41734121;28;20034;-72
2023/10/10 14:42:52;;;;;;;21.52;12.07;;;;;;;22.13;47.63;100832.25;41700053;28;20115;-69
2023/10/10 15:02:55;;;;;;;27.40;11.52;;;;;;;21.79;46.97;100850.56;41699174;28;20145;-68
2023/10/10 15:23:06;;;;;;;25.27;12.27;;;;;;;22.09;47.93;100870.34;41675984;28;20048;-70
2023/10/10 15:43:11;;;;;;;21.02;11.23;;;;;;;21.98;47.48;100892.22;41691811;28;20056;-70
2023/10/10 16:03:12;;;;;;;23.37;11.90;;;;;;;21.74;47.54;100877.22;41654425;28;20045;-68
2023/10/10 16:23:12;;;;;;;18.00;10.77;;;;;;;21.78;47.25;100904.22;41681046;28;20059;-69
2023/10/10 16:43:16;;;;;;;85.90;22.25;;;;;;;22.03;49.54;100905.94;41667116;28;20072;-70
2023/10/10 17:03:17;;;;;;;72.60;21.48;;;;;;;22.00;50.37;100929.03;41671362;28;20052;-67
2023/10/10 17:23:17;;;;;;;52.05;18.15;;;;;;;22.16;49.91;100958.59;41670517;28;20104;-67
2023/10/10 17:43:21;;;;;;;43.00;16.60;;;;;;;21.95;51.25;100933.78;41658996;28;20068;-75
2023/10/10 18:03:28;;;;;;;40.60;16.08;;;;;;;22.14;50.62;100970.22;41651999;28;20087;-70
2023/10/10 18:23:28;;;;;;;33.85;14.45;;;;;;;22.15;50.71;100985.94;41669372;28;20037;-69
2023/10/10 18:43:33;;;;;;;29.52;12.90;;;;;;;22.12;50.99;101003.78;41669443;28;21611;-71
2023/10/10 19:03:34;;;;;;;33.28;13.52;;;;;;;21.93;51.46;101001.63;41678209;28;20071;-71
2023/10/10 19:23:36;;;;;;;30.23;13.07;;;;;;;21.96;51.98;101019.84;41678987;28;20133;-69
2023/10/10 19:43:36;;;;;;;23.75;12.60;;;;;;;21.91;51.40;101021.03;41676334;28;20532;-71
2023/10/10 20:03:41;;;;;;;24.27;11.75;;;;;;;21.88;51.55;101033.59;41677736;28;20049;-70
2023/10/10 20:23:42;;;;;;;25.50;12.52;;;;;;;21.92;51.37;101048.22;41660686;28;20409;-69
2023/10/10 20:43:42;;;;;;;22.85;11.45;;;;;;;22.02;52.93;101053.69;41679552;28;20048;-67
2023/10/10 21:03:45;;;;;;;19.83;10.80;;;;;;;21.94;51.38;101048.97;41702396;28;20043;-68
2023/10/10 21:23:45;;;;;;;22.23;9.70;;;;;;;21.94;51.91;101042.88;41691465;28;20124;-69
2023/10/10 21:43:48;;;;;;;19.15;10.20;;;;;;;21.94;52.82;101030.50;41706524;28;20073;-68
2023/10/10 22:03:48;;;;;;;17.40;10.43;;;;;;;21.91;52.33;101039.47;41698312;28;20597;-68
2023/10/10 22:23:48;;;;;;;17.58;9.70;;;;;;;21.90;52.19;101077.34;41709280;28;20063;-68
2023/10/10 22:43:49;;;;;;;14.93;9.02;;;;;;;21.87;52.09;101080.22;41692819;28;20509;-69
2023/10/10 23:03:50;;;;;;;16.50;9.05;;;;;;;21.71;53.41;101043.50;41687271;28;20406;-68
2023/10/10 23:23:50;;;;;;;14.05;9.10;;;;;;;21.64;52.76;101031.72;41667494;28;20045;-69
2023/10/10 23:43:51;;;;;;;14.38;8.98;;;;;;;21.81;53.57;101070.06;41680153;28;20382;-68
